Time;durP1;ratioP1;P1;durP2;ratioP2;P2;SDS_P1;SDS_P2;PMS_P1;PMS_P2;Temp;Humidity;BMP_temperature;BMP_pressure;BME280_temperature;BME280_humidity;BME280_pressure;Samples;Min_cycle;Max_cycle;Signal;HPM_P1;HPM_P2
2022/08/01 00:01:33;;;;;;;;;9.00;9.00;;;;;17.93;75.49;99371.50;6286255;20;2756561;-52
2022/08/01 00:04:03;;;;;;;;;10.00;9.40;;;;;18.09;75.54;99368.16;6312897;20;2764862;-50
2022/08/01 00:06:33;;;;;;;;;8.60;8.60;;;;;17.94;75.95;99365.09;6318377;20;2740884;-54
2022/08/01 00:09:01;;;;;;;;;13.00;12.00;;;;;17.84;76.29;99358.84;6318073;20;2795233;-53
2022/08/01 00:11:30;;;;;;;;;12.00;10.67;;;;;17.75;77.03;99357.84;6317494;20;2786762;-53
2022/08/01 00:13:58;;;;;;;;;9.67;9.33;;;;;17.79;76.92;99353.84;6319181;20;2771089;-52
2022/08/01 00:16:28;;;;;;;;;10.20;9.80;;;;;17.66;77.61;99343.28;6342321;20;2796195;-53
2022/08/01 00:18:58;;;;;;;;;12.00;11.00;;;;;17.69;77.70;99348.44;6316050;20;2789840;-53
2022/08/01 00:21:26;;;;;;;;;9.00;9.00;;;;;17.78;77.09;99342.09;6287130;20;2756548;-51
2022/08/01 00:23:54;;;;;;;;;10.00;9.00;;;;;17.60;77.64;99352.03;6323721;20;2770234;-51
2022/08/01 00:26:22;;;;;;;;;11.00;9.00;;;;;17.53;78.28;99342.75;6295540;20;2776316;-51
2022/08/01 00:28:50;;;;;;;;;13.67;12.00;;;;;17.49;78.39;99341.34;6289575;20;2786726;-49
2022/08/01 00:31:20;;;;;;;;;9.00;9.00;;;;;17.29;78.77;99335.94;6345055;20;2731576;-52
2022/08/01 00:33:48;;;;;;;;;10.00;10.00;;;;;17.39;78.61;99343.22;6323669;20;2789861;-50
2022/08/01 00:36:16;;;;;;;;;13.33;11.00;;;;;17.44;78.52;99343.66;6287925;20;2789941;-50
2022/08/01 00:38:44;;;;;;;;;10.00;10.00;;;;;17.20;79.50;99342.28;6322641;20;2820126;-54
2022/08/01 00:41:12;;;;;;;;;10.00;10.00;;;;;17.51;78.59;99336.63;6294283;20;2794023;-48
2022/08/01 00:43:41;;;;;;;;;10.00;10.00;;;;;17.32;78.67;99341.13;6286046;20;3513757;-48
2022/08/01 00:46:08;;;;;;;;;11.00;11.00;;;;;17.35;78.33;99342.66;6320381;20;2800427;-51
2022/08/01 00:48:37;;;;;;;;;11.67;11.67;;;;;17.16;79.79;99327.28;6283112;20;2786799;-49
2022/08/01 00:51:06;;;;;;;;;9.67;9.67;;;;;17.20;79.60;99331.41;6318054;20;3487760;-55
2022/08/01 00:53:35;;;;;;;;;14.00;12.67;;;;;17.07;80.24;99325.44;6315444;20;3528360;-50
2022/08/01 00:56:25;;;;;;;;;11.67;10.00;;;;;17.11;79.93;99316.00;6314502;20;3515903;-50
2022/08/01 00:58:55;;;;;;;;;11.00;11.00;;;;;17.12;79.23;99323.16;6322747;20;2796095;-52
2022/08/01 01:01:23;;;;;;;;;12.00;11.00;;;;;16.87;80.24;99320.00;6289273;20;2806560;-53
2022/08/01 01:04:07;;;;;;;;;11.00;11.00;;;;;16.80;80.38;99324.31;6288080;20;2796215;-51
2022/08/01 01:09:58;;;;;;;;;11.71;10.57;;;;;16.88;79.93;99320.91;6316756;20;3529426;-49
2022/08/01 01:12:56;;;;;;;;;11.00;11.00;;;;;17.00;79.12;99313.44;6338944;20;3520011;-48
2022/08/01 01:15:44;;;;;;;;;11.67;11.67;;;;;16.81;80.04;99315.19;6341660;20;3536671;-48
2022/08/01 01:18:41;;;;;;;;;13.00;10.50;;;;;16.77;79.99;99321.91;6343884;20;2791966;-51
2022/08/01 01:21:46;;;;;;;;;10.00;9.00;;;;;16.84;79.65;99325.72;6311187;20;2771108;-60
2022/08/01 01:25:09;;;;;;;;;12.67;11.00;;;;;16.64;80.76;99318.56;6311050;20;2785733;-60
2022/08/01 01:28:08;;;;;;;;;11.50;11.50;;;;;16.64;79.39;99334.81;6341928;20;2790052;-60
2022/08/01 01:30:43;;;;;;;;;39.00;34.33;;;;;16.39;81.15;99326.25;6309847;20;2844058;-60
2022/08/01 01:33:13;;;;;;;;;14.00;14.00;;;;;16.04;82.32;99325.91;6346693;20;2800307;-61
2022/08/01 01:35:49;;;;;;;;;12.00;12.00;;;;;15.83;82.87;99315.16;6314382;20;2800380;-61
2022/08/01 01:38:29;;;;;;;;;12.50;11.00;;;;;16.29;81.35;99317.25;6312500;20;2802356;-61
2022/08/01 01:41:02;;;;;;;;;10.40;10.40;;;;;16.05;82.22;99311.34;6336902;20;2805513;-61
2022/08/01 01:43:33;;;;;;;;;10.50;10.00;;;;;16.02;82.54;99313.34;6317006;20;2795170;-61
2022/08/01 01:46:03;;;;;;;;;11.00;10.50;;;;;15.96;82.43;99316.63;6314098;20;2800440;-61
2022/08/01 01:48:33;;;;;;;;;11.50;9.50;;;;;16.00;82.06;99318.03;6309429;20;2778533;-60
2022/08/01 01:51:04;;;;;;;;;11.40;10.00;;;;;16.02;81.93;99315.19;6335346;20;2792023;-61
2022/08/01 01:53:36;;;;;;;;;11.00;10.60;;;;;16.16;81.45;99311.22;6336094;20;2791916;-61
2022/08/01 01:56:04;;;;;;;;;13.00;11.00;;;;;16.20;81.55;99310.81;6311172;20;2786701;-61
2022/08/01 01:58:35;;;;;;;;;10.00;10.00;;;;;16.27;81.12;99305.69;6307737;20;2784764;-61
2022/08/01 02:01:06;;;;;;;;;10.40;10.40;;;;;16.32;81.58;99311.53;6365196;20;2789854;-61
2022/08/01 02:03:43;;;;;;;;;11.00;11.00;;;;;16.16;82.22;99305.81;6310421;20;2789890;-60
2022/08/01 02:06:15;;;;;;;;;12.67;11.00;;;;;16.36;81.27;99304.84;6309860;20;3513112;-60
2022/08/01 02:08:46;;;;;;;;;10.67;10.33;;;;;16.20;81.76;99296.44;6339617;20;2799303;-61
2022/08/01 02:11:17;;;;;;;;;11.50;11.00;;;;;16.41;81.13;99307.16;6343161;20;2796100;-60
2022/08/01 02:13:59;;;;;;;;;10.67;10.67;;;;;16.41;80.87;99301.75;6308850;20;2780522;-61
2022/08/01 02:16:33;;;;;;;;;8.50;8.50;;;;;16.26;81.68;99297.72;6344553;20;2756618;-60
2022/08/01 02:19:03;;;;;;;;;12.00;10.00;;;;;16.55;79.67;99303.16;6306496;20;2790078;-60
2022/08/01 02:21:59;;;;;;;;;10.50;10.50;;;;;16.46;80.30;99294.03;6323746;20;2792035;-61
2022/08/01 02:25:04;;;;;;;;;13.00;11.00;;;;;16.38;80.76;99302.88;6292550;20;2792996;-60
2022/08/01 02:27:52;;;;;;;;;10.00;10.00;;;;;16.45;80.77;99301.28;6282275;20;2794007;-60
2022/08/01 02:30:20;;;;;;;;;9.00;9.00;;;;;16.36;80.90;99299.44;6287043;20;2754441;-61
2022/08/01 02:33:01;;;;;;;;;11.00;11.00;;;;;16.14;81.57;99294.25;6287698;20;3515856;-60
2022/08/01 02:35:38;;;;;;;;;12.00;12.00;;;;;16.23;81.12;99296.16;6340899;20;2797135;-60
2022/08/01 02:38:34;;;;;;;;;11.67;10.67;;;;;16.29;81.14;99301.00;6286889;20;2797133;-60
2022/08/01 02:41:12;;;;;;;;;11.00;10.67;;;;;16.11;82.29;99299.97;6316635;20;3515879;-61
2022/08/01 02:43:49;;;;;;;;;11.67;10.00;;;;;16.06;81.95;99291.41;6316544;20;2789942;-48
2022/08/01 02:46:36;;;;;;;;;11.00;11.00;;;;;15.91;82.36;99288.25;6315315;20;3507589;-49
2022/08/01 02:49:10;;;;;;;;;9.40;9.00;;;;;15.77;82.71;99286.75;6341804;20;2764908;-48
2022/08/01 02:51:41;;;;;;;;;9.20;9.00;;;;;15.87;82.23;99276.81;6307890;20;2758669;-60
2022/08/01 02:54:11;;;;;;;;;9.00;9.00;;;;;15.88;81.79;99289.38;6286980;20;2752373;-61
2022/08/01 02:56:42;;;;;;;;;13.67;11.67;;;;;15.99;81.08;99286.53;6284521;20;2793001;-60
2022/08/01 02:59:18;;;;;;;;;11.33;10.33;;;;;15.76;82.08;99285.06;6320148;20;3514958;-60
2022/08/01 03:01:54;;;;;;;;;11.40;10.20;;;;;15.32;84.39;99293.41;6340253;20;2786857;-61
2022/08/01 03:04:34;;;;;;;;;13.00;12.00;;;;;15.08;85.00;99282.84;6286394;20;3525256;-60
2022/08/01 03:07:07;;;;;;;;;11.67;10.67;;;;;15.13;85.09;99287.84;6314244;20;2796073;-60
2022/08/01 03:09:45;;;;;;;;;10.67;10.67;;;;;14.87;86.34;99298.22;6314905;20;3521054;-60
2022/08/01 03:12:25;;;;;;;;;12.67;11.33;;;;;14.75;86.81;99299.28;6319826;20;3533643;-60
2022/08/01 03:14:57;;;;;;;;;11.00;11.00;;;;;14.85;86.36;99294.78;6313833;20;2788907;-59
2022/08/01 03:17:28;;;;;;;;;10.67;10.67;;;;;14.75;87.08;99302.00;6311564;20;2794185;-60
2022/08/01 03:19:59;;;;;;;;;8.50;7.50;;;;;14.93;87.14;99297.72;6317598;20;2753403;-60
2022/08/01 03:22:30;;;;;;;;;12.00;12.00;;;;;15.03;86.22;99298.59;6284568;20;3524319;-60
2022/08/01 03:25:02;;;;;;;;;17.33;14.67;;;;;15.10;85.90;99297.09;6316011;20;3549334;-60
2022/08/01 03:27:31;;;;;;;;;14.50;13.50;;;;;14.83;87.39;99296.78;6284756;20;2805501;-60
2022/08/01 03:30:05;;;;;;;;;12.00;12.00;;;;;14.89;87.16;99301.66;6280981;20;3525392;-60
2022/08/01 03:32:35;;;;;;;;;12.67;12.33;;;;;14.87;86.46;99303.63;6315172;20;3527442;-60
2022/08/01 03:35:03;;;;;;;;;11.00;10.00;;;;;14.95;86.23;99306.53;6322101;20;2790873;-60
2022/08/01 03:37:46;;;;;;;;;12.50;12.50;;;;;14.87;87.37;99303.63;6285444;20;2797146;-50
2022/08/01 03:41:08;;;;;;;;;13.00;13.00;;;;;14.63;88.60;99312.81;6285383;20;3523145;-60
2022/08/01 03:43:47;;;;;;;;;11.00;11.00;;;;;14.86;87.81;99316.28;6313946;20;3528369;-60
2022/08/01 03:46:45;;;;;;;;;11.00;11.00;;;;;15.18;85.49;99323.47;6283160;20;2794058;-60
2022/08/01 03:49:22;;;;;;;;;14.00;12.00;;;;;14.91;85.39;99318.59;6321006;20;2790984;-60
2022/08/01 03:51:53;;;;;;;;;11.50;11.50;;;;;14.78;86.49;99320.63;6288199;20;2807689;-60
2022/08/01 03:54:25;;;;;;;;;13.00;12.00;;;;;14.63;87.72;99323.63;6283469;20;3542959;-60
2022/08/01 03:56:55;;;;;;;;;12.00;12.00;;;;;14.73;87.17;99323.72;6314097;20;3525391;-60
2022/08/01 03:59:24;;;;;;;;;11.00;11.00;;;;;15.01;85.77;99327.66;6315187;20;3513774;-45
2022/08/01 04:01:55;;;;;;;;;13.33;12.67;;;;;15.14;84.87;99327.44;6314927;20;2806653;-46
2022/08/01 04:04:24;;;;;;;;;12.67;11.00;;;;;14.84;85.89;99325.50;6311171;20;3521122;-47
2022/08/01 04:06:54;;;;;;;;;14.00;12.00;;;;;14.91;85.94;99329.41;6338083;20;2797140;-49
2022/08/01 04:09:23;;;;;;;;;12.00;12.00;;;;;14.83;86.65;99319.25;6280866;20;2791994;-60
2022/08/01 04:11:50;;;;;;;;;11.50;11.50;;;;;14.98;86.76;99327.91;6318465;20;2791972;-48
2022/08/01 04:14:19;;;;;;;;;13.00;13.00;;;;;15.21;85.62;99328.63;6288548;20;3524173;-48
2022/08/01 04:16:48;;;;;;;;;14.00;12.33;;;;;15.28;85.79;99331.66;6315159;20;3519100;-47
2022/08/01 04:19:16;;;;;;;;;13.00;10.50;;;;;15.82;83.83;99335.94;6321291;20;2789975;-46
2022/08/01 04:21:44;;;;;;;;;12.00;12.00;;;;;15.82;83.12;99337.78;6290569;20;2797291;-47
2022/08/01 04:24:17;;;;;;;;;11.67;11.67;;;;;15.48;84.32;99330.78;6283653;20;3533704;-60
2022/08/01 04:26:48;;;;;;;;;16.00;12.00;;;;;15.57;84.53;99334.53;6312240;20;3536678;-61
2022/08/01 04:29:19;;;;;;;;;12.50;11.00;;;;;15.67;83.80;99329.16;6316458;20;2806578;-60
2022/08/01 04:31:50;;;;;;;;;13.33;12.00;;;;;15.71;83.78;99330.63;6283673;20;3534656;-60
2022/08/01 04:34:24;;;;;;;;;12.50;11.50;;;;;16.04;83.30;99337.59;6316957;20;2809623;-61
2022/08/01 04:36:56;;;;;;;;;12.67;11.67;;;;;16.04;82.72;99336.75;6281763;20;3530474;-60
2022/08/01 04:39:28;;;;;;;;;14.33;13.00;;;;;16.08;82.50;99343.56;6315611;20;3533576;-60
2022/08/01 04:42:00;;;;;;;;;16.67;15.67;;;;;16.15;82.92;99351.00;6279726;20;3559636;-60
2022/08/01 04:44:28;;;;;;;;;17.00;17.00;;;;;16.35;81.89;99354.66;6285419;20;2822139;-60
2022/08/01 04:47:03;;;;;;;;;17.50;16.50;;;;;16.54;81.96;99344.84;6284669;20;2825257;-61
2022/08/01 04:49:34;;;;;;;;;11.00;11.00;;;;;16.18;82.62;99349.88;6284302;20;2797279;-61
2022/08/01 04:52:17;;;;;;;;;14.33;12.33;;;;;16.51;81.87;99350.50;6315323;20;3523312;-61
2022/08/01 04:54:51;;;;;;;;;13.00;11.00;;;;;16.52;80.95;99344.09;6288290;20;2807606;-60
2022/08/01 04:57:20;;;;;;;;;13.33;12.33;;;;;16.63;81.38;99346.69;6282979;20;3512732;-61
2022/08/01 04:59:49;;;;;;;;;10.00;10.00;;;;;16.95;80.06;99348.28;6312670;20;2788895;-61
2022/08/01 05:02:19;;;;;;;;;10.33;10.00;;;;;16.93;80.04;99344.84;6314588;20;2778472;-61
2022/08/01 05:04:49;;;;;;;;;9.40;9.40;;;;;17.26;79.19;99347.09;6341916;20;2747171;-60
2022/08/01 05:07:18;;;;;;;;;10.00;10.00;;;;;17.32;78.67;99357.41;6280686;20;3502324;-60
2022/08/01 05:09:46;;;;;;;;;11.00;11.00;;;;;17.84;76.70;99356.13;6314812;20;2800363;-60
2022/08/01 05:12:15;;;;;;;;;9.00;9.00;;;;;17.89;76.41;99353.81;6284285;20;2761100;-60
2022/08/01 05:14:45;;;;;;;;;9.00;9.00;;;;;18.02;76.10;99357.03;6311627;20;3462879;-60
2022/08/01 05:17:13;;;;;;;;;10.50;10.50;;;;;18.40;74.70;99355.09;6316835;20;2787290;-61
2022/08/01 05:19:43;;;;;;;;;10.00;10.00;;;;;18.41;74.40;99354.97;6278163;20;2784774;-60
2022/08/01 05:22:13;;;;;;;;;9.00;9.00;;;;;18.64;73.84;99358.13;6340260;20;2748240;-60
2022/08/01 05:24:42;;;;;;;;;8.50;8.50;;;;;18.55;73.44;99356.31;6323995;20;2756643;-60
2022/08/01 05:27:13;;;;;;;;;10.40;10.40;;;;;18.65;74.06;99357.09;6309054;20;2797192;-60
2022/08/01 05:29:43;;;;;;;;;10.50;10.50;;;;;18.95;72.02;99357.75;6285391;20;2791967;-60
2022/08/01 05:32:11;;;;;;;;;9.00;8.00;;;;;19.08;71.93;99363.63;6286699;20;2736774;-61
2022/08/01 05:34:40;;;;;;;;;8.00;8.00;;;;;19.37;71.87;99357.06;6286682;20;3355447;-60
2022/08/01 05:37:10;;;;;;;;;11.20;10.60;;;;;19.45;71.28;99364.44;6337997;20;2789910;-60
2022/08/01 05:39:38;;;;;;;;;9.33;8.00;;;;;19.50;71.10;99367.53;6284273;20;2759659;-60
2022/08/01 05:42:06;;;;;;;;;8.50;7.50;;;;;19.88;69.99;99366.28;6314060;20;2751393;-61
2022/08/01 05:44:35;;;;;;;;;9.00;9.00;;;;;19.83;69.22;99368.66;6285652;20;2756553;-61
2022/08/01 05:47:03;;;;;;;;;8.00;7.00;;;;;20.04;68.10;99364.66;6320875;20;2743103;-61
2022/08/01 05:49:31;;;;;;;;;9.00;9.00;;;;;20.09;69.11;99370.44;6294179;20;2750318;-60
2022/08/01 05:52:01;;;;;;;;;12.00;9.00;;;;;20.18;68.67;99372.22;6284475;20;2775251;-60
2022/08/01 05:54:32;;;;;;;;;10.00;8.40;;;;;20.22;67.92;99370.88;6340385;20;2761773;-60
2022/08/01 05:57:01;;;;;;;;;7.33;7.33;;;;;20.46;67.87;99375.56;6301745;20;2742328;-60
2022/08/01 05:59:30;;;;;;;;;10.33;9.00;;;;;20.26;67.69;99374.13;6318578;20;2768996;-61
2022/08/01 06:01:59;;;;;;;;;9.33;9.00;;;;;20.36;67.52;99372.13;6321076;20;2764858;-61
2022/08/01 06:04:28;;;;;;;;;8.80;8.80;;;;;20.56;66.17;99376.31;6347769;20;2746105;-61
2022/08/01 06:06:57;;;;;;;;;8.33;8.33;;;;;20.61;65.61;99373.06;6288936;20;2743030;-61
2022/08/01 06:09:25;;;;;;;;;9.00;9.00;;;;;20.57;66.53;99371.72;6326279;20;2749392;-61
2022/08/01 06:11:55;;;;;;;;;7.60;7.60;;;;;20.95;65.21;99369.38;6346308;20;2750277;-61
2022/08/01 06:14:23;;;;;;;;;9.00;9.00;;;;;21.09;65.06;99371.47;6286958;20;2750278;-61
2022/08/01 06:16:53;;;;;;;;;7.00;7.00;;;;;21.17;64.88;99363.25;6342197;20;2741948;-60
2022/08/01 06:19:21;;;;;;;;;7.67;7.67;;;;;21.20;64.33;99371.09;6284528;20;2748188;-60
2022/08/01 06:21:50;;;;;;;;;8.33;8.33;;;;;21.25;63.99;99370.59;6320502;20;2750461;-60
2022/08/01 06:24:19;;;;;;;;;5.00;5.00;;;;;21.34;63.13;99374.19;6345558;20;2733706;-61
2022/08/01 06:26:49;;;;;;;;;9.80;8.20;;;;;21.76;63.15;99376.72;6343547;20;2759789;-61
2022/08/01 06:29:19;;;;;;;;;8.60;7.60;;;;;21.96;61.77;99382.66;6317137;20;2748182;-61
2022/08/01 06:31:47;;;;;;;;;9.00;9.00;;;;;22.00;61.99;99373.06;6287623;20;2752332;-60
2022/08/01 06:34:16;;;;;;;;;9.00;9.00;;;;;22.21;61.56;99371.66;6319355;20;2762886;-60
2022/08/01 06:36:45;;;;;;;;;9.20;9.20;;;;;22.40;60.63;99376.69;6344958;20;2766932;-61
2022/08/01 06:39:14;;;;;;;;;11.33;8.33;;;;;22.61;60.16;99377.97;6289922;20;2771115;-61
2022/08/01 06:41:46;;;;;;;;;8.00;8.00;;;;;22.94;59.58;99379.47;6346482;20;2753419;-61
2022/08/01 06:44:14;;;;;;;;;9.00;9.00;;;;;23.37;57.95;99388.06;6288266;20;2745079;-61
2022/08/01 06:46:44;;;;;;;;;8.20;7.00;;;;;23.35;57.96;99381.91;6346818;20;2744107;-61
2022/08/01 06:49:12;;;;;;;;;7.00;7.00;;;;;23.90;56.42;99382.59;6289054;20;2747187;-61
2022/08/01 06:51:41;;;;;;;;;6.67;6.67;;;;;24.17;56.09;99388.47;6319297;20;2741972;-61
2022/08/01 06:54:09;;;;;;;;;7.00;7.00;;;;;24.50;54.36;99391.72;6323602;20;2751405;-61
2022/08/01 06:56:37;;;;;;;;;8.00;8.00;;;;;24.38;54.40;99394.06;6317521;20;2747122;-61
2022/08/01 06:59:07;;;;;;;;;8.00;8.00;;;;;25.20;54.29;99403.97;6346483;20;2735669;-62
2022/08/01 07:01:37;;;;;;;;;6.80;6.80;;;;;25.20;52.90;99392.97;6313492;20;2735653;-61
2022/08/01 07:04:07;;;;;;;;;10.20;8.00;;;;;25.70;53.32;99398.44;6313338;20;2757548;-61
2022/08/01 07:06:38;;;;;;;;;8.17;7.17;;;;;25.88;51.94;99401.59;6336347;20;1791961;-61
2022/08/01 07:09:08;;;;;;;;;7.40;7.40;;;;;25.85;51.57;99402.00;6344523;20;2745041;-50
2022/08/01 07:11:42;;;;;;;;;10.00;6.67;;;;;26.43;50.42;99408.06;6296981;20;2765895;-52
2022/08/01 07:14:10;;;;;;;;;7.00;7.00;;;;;26.31;50.49;99406.13;6320078;20;2748210;-50
2022/08/01 07:16:40;;;;;;;;;4.60;4.60;;;;;26.87;49.56;99411.47;6344219;20;2749209;-61
2022/08/01 07:19:08;;;;;;;;;8.00;8.00;;;;;27.03;48.16;99404.72;6288839;20;2752314;-61
2022/08/01 07:21:38;;;;;;;;;7.33;6.00;;;;;27.18;49.04;99402.69;6320733;20;2737740;-61
2022/08/01 07:24:13;;;;;;;;;7.67;6.67;;;;;27.46;47.29;99402.50;6320510;20;2744012;-62
2022/08/01 07:26:47;;;;;;;;;7.00;7.00;;;;;27.55;46.61;99409.50;6317207;20;2739835;-62
2022/08/01 07:29:24;;;;;;;;;8.60;7.60;;;;;27.84;47.00;99401.06;6342577;20;2744053;-59
2022/08/01 07:31:57;;;;;;;;;7.67;7.67;;;;;28.12;45.94;99404.41;6286374;20;2746189;-59
2022/08/01 07:34:26;;;;;;;;;8.00;8.00;;;;;27.98;46.03;99402.72;6321191;20;2756531;-58
2022/08/01 07:36:54;;;;;;;;;7.00;7.00;;;;;27.38;47.52;99399.09;6325508;20;2754476;-58
2022/08/01 07:39:23;;;;;;;;;8.33;8.33;;;;;28.13;46.57;99403.34;6326519;20;2742959;-58
2022/08/01 07:41:51;;;;;;;;;9.00;8.00;;;;;28.39;45.49;99399.66;6319181;20;2757534;-58
2022/08/01 07:44:36;;;;;;;;;8.33;7.00;;;;;28.54;45.16;99404.09;6320659;20;2750411;-59
2022/08/01 07:47:06;;;;;;;;;8.60;7.00;;;;;28.10;46.07;99402.94;6342279;20;2752369;-58
2022/08/01 07:49:37;;;;;;;;;8.40;7.00;;;;;28.35;45.16;99403.91;6315538;20;2748210;-47
2022/08/01 07:52:09;;;;;;;;;8.00;8.00;;;;;29.20;44.06;99411.22;6287887;20;2738813;-51
2022/08/01 07:54:37;;;;;;;;;6.00;6.00;;;;;28.11;44.31;99408.22;6319408;20;2737904;-49
2022/08/01 07:57:06;;;;;;;;;7.00;7.00;;;;;28.18;44.37;99408.22;6324787;20;2739837;-49
2022/08/01 07:59:35;;;;;;;;;8.00;8.00;;;;;28.10;44.24;99395.50;6320176;20;2738922;-48
2022/08/01 08:02:04;;;;;;;;;6.33;6.33;;;;;28.95;42.87;99398.16;6322039;20;2734019;-51
2022/08/01 08:04:33;;;;;;;;;6.00;6.00;;;;;28.75;41.42;99397.41;6320683;20;2746228;-50
2022/08/01 08:07:02;;;;;;;;;7.00;7.00;;;;;28.74;39.63;99398.50;6319693;20;2746103;-45
2022/08/01 08:09:32;;;;;;;;;4.40;4.40;;;;;28.94;40.05;99404.78;6341860;20;2728395;-51
2022/08/01 08:12:06;;;;;;;;;5.00;5.00;;;;;28.56;39.97;99397.28;6287865;20;2726475;-48
2022/08/01 08:14:35;;;;;;;;;5.00;5.00;;;;;28.83;40.07;99395.25;6320516;20;2734699;-47
2022/08/01 08:17:05;;;;;;;;;5.67;5.67;;;;;28.23;39.17;99400.13;6314121;20;2736975;-46
2022/08/01 08:19:36;;;;;;;;;6.00;6.00;;;;;28.49;38.99;99403.88;6320967;20;2734682;-50
2022/08/01 08:22:08;;;;;;;;;6.00;6.00;;;;;28.66;39.14;99405.09;6319976;20;2727477;-47
2022/08/01 08:24:38;;;;;;;;;7.33;6.00;;;;;28.93;38.12;99393.91;6327466;20;2739855;-49
2022/08/01 08:27:14;;;;;;;;;6.00;6.00;;;;;28.71;38.46;99393.41;6340817;20;2735731;-49
2022/08/01 08:29:43;;;;;;;;;7.00;7.00;;;;;28.69;39.01;99398.28;6315663;20;2737860;-50
2022/08/01 08:32:12;;;;;;;;;6.00;6.00;;;;;28.26;39.91;99387.81;6320638;20;2737854;-50
2022/08/01 08:34:41;;;;;;;;;7.00;7.00;;;;;28.28;39.87;99391.19;6317913;20;2752431;-49
2022/08/01 08:37:10;;;;;;;;;8.67;8.67;;;;;28.48;38.19;99396.69;6316550;20;2746067;-50
2022/08/01 08:39:39;;;;;;;;;8.33;8.33;;;;;28.60;38.19;99394.94;6318363;20;2744115;-47
2022/08/01 08:42:11;;;;;;;;;7.00;7.00;;;;;29.22;36.92;99412.69;6316998;20;2741947;-46
2022/08/01 08:44:42;;;;;;;;;7.67;7.67;;;;;28.82;36.70;99404.59;6317333;20;2756614;-49
2022/08/01 08:47:15;;;;;;;;;11.00;9.33;;;;;28.80;37.27;99405.88;6313342;20;2776286;-49
2022/08/01 08:49:54;;;;;;;;;10.00;8.00;;;;;27.98;37.77;99403.56;6317423;20;2749224;-48
2022/08/01 08:52:23;;;;;;;;;9.00;9.00;;;;;28.79;36.09;99409.72;6315036;20;3480532;-58
2022/08/01 08:54:52;;;;;;;;;6.67;6.67;;;;;28.94;35.39;99410.31;6317056;20;2739849;-57
2022/08/01 08:57:22;;;;;;;;;7.33;7.33;;;;;29.01;35.47;99410.25;6311916;20;2740951;-58
2022/08/01 08:59:52;;;;;;;;;8.00;6.67;;;;;29.47;34.60;99415.50;6317741;20;2735709;-57
2022/08/01 09:02:21;;;;;;;;;10.00;9.00;;;;;28.48;36.17;99414.09;6313577;20;2764954;-58
2022/08/01 09:04:51;;;;;;;;;8.00;8.00;;;;;29.04;36.22;99412.56;6316838;20;2752353;-58
2022/08/01 09:07:19;;;;;;;;;6.00;6.00;;;;;28.98;35.26;99414.28;6313520;20;2741914;-58
2022/08/01 09:09:48;;;;;;;;;8.67;8.33;;;;;29.44;34.86;99418.75;6315653;20;2746072;-58
2022/08/01 09:12:20;;;;;;;;;8.00;8.00;;;;;29.56;34.83;99421.63;6315054;20;2750238;-59
2022/08/01 09:14:50;;;;;;;;;9.67;7.67;;;;;29.28;33.93;99422.00;6318353;20;2757532;-58
2022/08/01 09:17:20;;;;;;;;;5.40;5.40;;;;;29.50;35.12;99428.91;6337183;20;2742103;-57
2022/08/01 09:19:56;;;;;;;;;5.33;5.33;;;;;29.10;35.48;99423.63;6285635;20;2736696;-58
2022/08/01 09:22:26;;;;;;;;;10.00;9.00;;;;;28.99;36.17;99427.06;6316898;20;2773272;-58
2022/08/01 09:25:09;;;;;;;;;6.00;6.00;;;;;29.13;36.26;99418.72;6316356;20;2736789;-58
2022/08/01 09:27:39;;;;;;;;;7.00;7.00;;;;;29.34;35.25;99421.16;6312961;20;2739863;-57
2022/08/01 09:30:17;;;;;;;;;8.00;8.00;;;;;29.92;34.49;99420.91;6321212;20;2739833;-57
2022/08/01 09:33:08;;;;;;;;;8.67;8.00;;;;;29.36;33.69;99413.47;6323442;20;2745049;-58
2022/08/01 09:35:57;;;;;;;;;8.00;7.00;;;;;29.89;33.71;99415.84;6322336;20;2746153;-58
2022/08/01 09:38:27;;;;;;;;;7.00;7.00;;;;;29.95;34.27;99414.09;6321594;20;2744045;-56
2022/08/01 09:41:00;;;;;;;;;7.67;7.00;;;;;29.68;33.68;99419.00;6328852;20;2746116;-58
2022/08/01 09:43:31;;;;;;;;;10.00;8.00;;;;;29.57;33.82;99416.91;6320414;20;2764922;-59
2022/08/01 09:46:11;;;;;;;;;7.67;6.33;;;;;30.40;33.54;99423.00;6330310;20;2750259;-58
2022/08/01 09:48:58;;;;;;;;;11.00;8.00;;;;;30.57;30.72;99414.06;6319859;20;2777328;-56
2022/08/01 09:51:36;;;;;;;;;9.33;8.00;;;;;30.94;30.95;99406.63;6323994;20;2758654;-61
2022/08/01 09:54:32;;;;;;;;;4.80;4.80;;;;;30.56;30.78;99409.63;6346549;20;2740327;-62
2022/08/01 09:57:17;;;;;;;;;9.33;9.00;;;;;30.33;32.19;99400.09;6287523;20;2758607;-61
2022/08/01 09:59:52;;;;;;;;;8.67;6.67;;;;;30.22;33.03;99400.81;6324322;20;2749240;-61
2022/08/01 10:02:38;;;;;;;;;6.00;6.00;;;;;30.28;32.09;99402.72;6323846;20;2739869;-61
2022/08/01 10:05:10;;;;;;;;;8.00;7.00;;;;;30.45;31.42;99396.53;6322102;20;2741970;-62
2022/08/01 10:08:04;;;;;;;;;7.00;7.00;;;;;30.35;32.18;99391.53;6319384;20;2738820;-62
2022/08/01 10:10:35;;;;;;;;;6.67;6.67;;;;;30.78;31.34;99390.56;6322933;20;2748332;-64
2022/08/01 10:13:05;;;;;;;;;7.00;7.00;;;;;30.93;31.56;99392.97;6319962;20;2739882;-62
2022/08/01 10:15:37;;;;;;;;;8.00;8.00;;;;;31.19;30.36;99389.81;6321182;20;2744197;-65
2022/08/01 10:18:09;;;;;;;;;6.67;6.67;;;;;30.66;32.18;99381.38;6327320;20;2738226;-66
2022/08/01 10:20:54;;;;;;;;;7.33;7.33;;;;;31.06;30.96;99387.22;6317285;20;2740319;-61
2022/08/01 10:23:34;;;;;;;;;9.00;6.33;;;;;31.18;30.68;99385.34;6320114;20;2748219;-58
2022/08/01 10:26:12;;;;;;;;;7.00;7.00;;;;;30.90;31.70;99376.81;6319127;20;2752334;-55
2022/08/01 10:28:45;;;;;;;;;7.00;7.00;;;;;30.95;30.84;99380.56;6315645;20;2743987;-57
2022/08/01 10:31:13;;;;;;;;;3.67;3.67;;;;;30.72;30.73;99385.97;6311757;20;2730961;-54
2022/08/01 10:33:42;;;;;;;;;7.00;6.33;;;;;30.61;31.70;99384.84;6322764;20;2726406;-54
2022/08/01 10:36:22;;;;;;;;;7.00;7.00;;;;;29.83;32.26;99377.13;6318544;20;2741945;-55
2022/08/01 10:38:58;;;;;;;;;7.00;7.00;;;;;30.72;31.10;99386.81;6318095;20;2748214;-54
2022/08/01 10:41:26;;;;;;;;;7.00;7.00;;;;;30.81;30.67;99379.91;6322338;20;2639893;-52
2022/08/01 10:43:56;;;;;;;;;7.00;7.00;;;;;31.01;30.38;99374.06;6327191;20;2746127;-51
2022/08/01 10:46:25;;;;;;;;;6.67;6.67;;;;;30.80;31.48;99383.72;6318729;20;2746153;-55
2022/08/01 10:49:11;;;;;;;;;6.00;6.00;;;;;31.33;30.54;99370.19;6328235;20;2740888;-52
2022/08/01 10:51:41;;;;;;;;;16.50;16.50;;;;;30.27;31.77;99372.44;6314659;20;2832561;-53
2022/08/01 10:54:26;;;;;;;;;8.00;7.00;;;;;30.95;31.45;99368.63;6287145;20;2743994;-52
2022/08/01 10:57:00;;;;;;;;;5.67;5.67;;;;;31.40;30.51;99376.50;6328830;20;2727416;-63
2022/08/01 10:59:31;;;;;;;;;6.00;6.00;;;;;31.25;30.96;99365.81;6320778;20;2750246;-62
2022/08/01 11:02:40;;;;;;;;;5.33;5.33;;;;;30.75;31.63;99363.31;6323357;20;2740266;-62
2022/08/01 11:05:21;;;;;;;;;11.67;7.33;;;;;30.45;31.72;99368.84;6326952;20;2765869;-62
2022/08/01 11:07:55;;;;;;;;;5.33;5.33;;;;;30.54;31.34;99376.59;6317111;20;2738899;-62
2022/08/01 11:10:44;;;;;;;;;7.33;6.00;;;;;29.72;33.04;99379.56;6320981;20;2732538;-62
2022/08/01 11:13:12;;;;;;;;;6.67;6.67;;;;;29.61;33.40;99374.75;6322179;20;2746079;-62
2022/08/01 11:15:42;;;;;;;;;7.00;7.00;;;;;29.64;32.46;99367.91;6318713;20;2729556;-61
2022/08/01 11:18:26;;;;;;;;;6.00;6.00;;;;;29.79;31.98;99373.16;6321062;20;2735708;-62
2022/08/01 11:21:01;;;;;;;;;7.00;5.00;;;;;29.59;33.14;99376.03;6328229;20;2742172;-62
2022/08/01 11:23:53;;;;;;;;;8.00;8.00;;;;;29.23;33.13;99367.41;6316191;20;2736830;-62
2022/08/01 11:26:22;;;;;;;;;6.33;6.33;;;;;28.82;33.94;99359.53;6318316;20;2741911;-61
2022/08/01 11:29:17;;;;;;;;;5.67;5.67;;;;;28.84;33.57;99363.78;6321960;20;2741959;-61
2022/08/01 11:31:51;;;;;;;;;7.00;7.00;;;;;29.10;33.36;99362.81;6319564;20;2746093;-62
2022/08/01 11:34:20;;;;;;;;;7.33;6.00;;;;;28.97;33.56;99359.25;6321591;20;2741907;-61
2022/08/01 11:36:49;;;;;;;;;8.00;8.00;;;;;28.90;34.18;99362.03;6315750;20;2746106;-61
2022/08/01 11:39:27;;;;;;;;;7.33;7.33;;;;;28.81;33.75;99364.22;6327496;20;2746536;-63
2022/08/01 11:42:20;;;;;;;;;6.67;6.67;;;;;28.56;34.29;99369.66;6317274;20;2733650;-62